createdAt,value
2022-08-14T00:00:37.998Z,20.76
2022-08-14T00:01:37.982Z,20.96
2022-08-14T00:02:37.970Z,20.87
2022-08-14T00:03:37.890Z,20.96
2022-08-14T00:04:42.460Z,20.98
2022-08-14T00:05:38.867Z,20.97
2022-08-14T00:06:39.070Z,20.50
2022-08-14T00:07:41.951Z,20.17
2022-08-14T00:08:44.665Z,19.94
2022-08-14T00:09:55.189Z,20.05
2022-08-14T00:10:53.030Z,20.10
2022-08-14T00:11:38.949Z,20.23
2022-08-14T00:12:39.560Z,20.37
2022-08-14T00:13:37.843Z,20.42
2022-08-14T00:14:37.858Z,20.51
2022-08-14T00:15:44.097Z,20.61
2022-08-14T00:16:41.804Z,20.66
2022-08-14T00:17:48.427Z,20.60
2022-08-14T00:19:06.076Z,20.73
2022-08-14T00:19:38.848Z,20.83
2022-08-14T00:20:41.382Z,20.57
2022-08-14T00:21:38.888Z,20.05
2022-08-14T00:22:57.058Z,19.70
2022-08-14T00:23:38.859Z,19.65
2022-08-14T00:24:37.781Z,19.30
2022-08-14T00:25:42.472Z,19.28
2022-08-14T00:26:37.753Z,19.34
2022-08-14T00:27:38.274Z,19.30
2022-08-14T00:28:37.839Z,19.15
2022-08-14T00:29:40.613Z,18.99
2022-08-14T00:30:42.778Z,18.96
2022-08-14T00:31:45.771Z,18.96
2022-08-14T00:32:52.421Z,19.05
2022-08-14T00:33:50.737Z,18.90
2022-08-14T00:34:47.188Z,18.78
2022-08-14T00:36:36.496Z,18.78
2022-08-14T00:36:49.109Z,18.76
2022-08-14T00:37:39.814Z,18.72
2022-08-14T00:38:37.758Z,18.72
2022-08-14T00:39:37.858Z,18.76
2022-08-14T00:40:37.739Z,18.82
2022-08-14T00:41:39.202Z,18.87
2022-08-14T00:42:54.945Z,18.90
2022-08-14T00:43:43.135Z,19.10
2022-08-14T00:44:37.730Z,19.25
2022-08-14T00:45:38.757Z,19.40
2022-08-14T00:46:37.733Z,19.60
2022-08-14T00:47:43.245Z,19.61
2022-08-14T00:48:38.685Z,19.80
2022-08-14T00:49:42.851Z,19.92
2022-08-14T00:50:38.638Z,20.12
2022-08-14T00:51:38.413Z,20.12
2022-08-14T00:52:37.643Z,20.13
2022-08-14T00:53:37.653Z,20.12
2022-08-14T00:54:37.676Z,19.94
2022-08-14T00:55:38.940Z,19.82
2022-08-14T00:56:37.628Z,19.65
2022-08-14T00:57:37.579Z,19.62
2022-08-14T00:58:44.935Z,19.43
2022-08-14T00:59:38.581Z,19.43
2022-08-14T01:00:43.074Z,19.55
2022-08-14T01:01:38.636Z,19.57
2022-08-14T01:02:37.687Z,19.52
2022-08-14T01:03:37.604Z,19.65
2022-08-14T01:04:54.478Z,19.64
2022-08-14T01:05:51.000Z,19.87
2022-08-14T01:06:38.677Z,20.01
2022-08-14T01:07:47.270Z,20.04
2022-08-14T01:08:51.999Z,20.02
2022-08-14T01:09:39.204Z,20.16
2022-08-14T01:10:38.412Z,20.22
2022-08-14T01:11:37.519Z,20.27
2022-08-14T01:12:40.399Z,20.38
2022-08-14T01:13:42.552Z,20.40
2022-08-14T01:14:38.478Z,20.44
2022-08-14T01:15:57.926Z,20.46
2022-08-14T01:16:38.485Z,20.53
2022-08-14T01:17:37.600Z,20.48
2022-08-14T01:18:38.671Z,20.51
2022-08-14T01:19:37.425Z,20.48
2022-08-14T01:20:39.792Z,20.63
2022-08-14T01:21:46.993Z,20.56
2022-08-14T01:22:38.394Z,20.50
2022-08-14T01:23:46.573Z,20.42
2022-08-14T01:24:38.428Z,20.12
2022-08-14T01:25:37.858Z,19.70
2022-08-14T01:26:38.774Z,19.38
2022-08-14T01:27:56.686Z,19.13
2022-08-14T01:28:54.161Z,18.91
2022-08-14T01:29:59.165Z,18.89
2022-08-14T01:30:39.953Z,18.66
2022-08-14T01:31:38.409Z,18.53
2022-08-14T01:32:42.701Z,18.49
2022-08-14T01:33:52.182Z,18.28
2022-08-14T01:35:20.412Z,18.19
2022-08-14T01:36:05.307Z,18.44
2022-08-14T01:36:39.453Z,18.46
2022-08-14T01:37:37.351Z,18.66
2022-08-14T01:38:38.736Z,18.68
2022-08-14T01:39:38.446Z,18.75
2022-08-14T01:40:42.011Z,18.79
2022-08-14T01:41:38.374Z,18.91
2022-08-14T01:42:37.305Z,18.84
2022-08-14T01:43:37.301Z,18.54
2022-08-14T01:44:37.319Z,18.11
2022-08-14T01:45:40.251Z,18.05
2022-08-14T01:46:37.348Z,18.07
2022-08-14T01:47:37.542Z,18.29
2022-08-14T01:48:37.872Z,18.36
2022-08-14T01:49:46.468Z,18.72
2022-08-14T01:50:38.356Z,18.82
2022-08-14T01:51:37.273Z,18.93
2022-08-14T01:52:59.350Z,19.13
2022-08-14T01:53:38.293Z,18.91
2022-08-14T01:54:38.072Z,18.91
2022-08-14T01:55:37.394Z,18.90
2022-08-14T01:56:39.298Z,18.75
2022-08-14T01:57:55.304Z,18.84
2022-08-14T01:58:38.192Z,18.89
2022-08-14T01:59:38.735Z,19.10
2022-08-14T02:00:38.183Z,18.94
2022-08-14T02:01:37.268Z,18.91
2022-08-14T02:02:37.763Z,18.82
2022-08-14T02:03:37.325Z,18.57
2022-08-14T02:04:40.658Z,18.35
2022-08-14T02:05:38.922Z,18.10
2022-08-14T02:06:37.149Z,17.99
2022-08-14T02:07:53.351Z,17.86
2022-08-14T02:08:38.197Z,17.92
2022-08-14T02:09:38.135Z,18.02
2022-08-14T02:10:46.827Z,18.21
2022-08-14T02:11:38.166Z,18.53
2022-08-14T02:12:37.115Z,18.66
2022-08-14T02:13:37.189Z,18.91
2022-08-14T02:14:37.117Z,18.93
2022-08-14T02:15:37.191Z,19.13
2022-08-14T02:16:37.080Z,19.17
2022-08-14T02:17:37.053Z,19.34
2022-08-14T02:18:37.281Z,19.46
2022-08-14T02:19:37.057Z,19.53
2022-08-14T02:20:37.104Z,19.09
2022-08-14T02:21:43.680Z,18.78
2022-08-14T02:22:48.116Z,18.60
2022-08-14T02:23:38.028Z,18.60
2022-08-14T02:24:39.972Z,18.71
2022-08-14T02:25:37.023Z,18.74
2022-08-14T02:26:58.427Z,18.86
2022-08-14T02:28:24.234Z,18.89
2022-08-14T02:28:57.534Z,19.13
2022-08-14T02:30:00.210Z,19.17
2022-08-14T02:30:38.518Z,19.24
2022-08-14T02:31:43.550Z,19.12
2022-08-14T02:32:37.988Z,18.64
2022-08-14T02:33:39.096Z,18.21
2022-08-14T02:34:36.944Z,18.01
2022-08-14T02:35:40.475Z,17.76
2022-08-14T02:37:02.627Z,17.81
2022-08-14T02:37:48.085Z,18.16
2022-08-14T02:38:37.970Z,18.41
2022-08-14T02:39:37.203Z,18.50
2022-08-14T02:40:36.926Z,18.64
2022-08-14T02:41:38.986Z,18.79
2022-08-14T02:42:37.625Z,18.68
2022-08-14T02:43:46.170Z,18.65
2022-08-14T02:44:39.741Z,18.72
2022-08-14T02:45:44.161Z,18.76
2022-08-14T02:46:37.902Z,18.84
2022-08-14T02:47:38.866Z,18.82
2022-08-14T02:49:05.864Z,18.86
2022-08-14T02:49:37.883Z,18.90
2022-08-14T02:50:36.868Z,18.89
2022-08-14T02:51:37.086Z,19.09
2022-08-14T02:52:57.826Z,19.07
2022-08-14T02:53:38.861Z,18.99
2022-08-14T02:54:36.863Z,18.90
2022-08-14T02:55:36.888Z,18.69
2022-08-14T02:57:15.289Z,18.44
2022-08-14T02:57:40.140Z,18.36
2022-08-14T02:58:37.135Z,18.13
2022-08-14T02:59:36.898Z,17.99
2022-08-14T03:00:40.144Z,17.91
2022-08-14T03:01:43.720Z,17.84
2022-08-14T03:02:56.385Z,17.68
2022-08-14T03:03:38.862Z,17.63
2022-08-14T03:04:36.844Z,17.53
2022-08-14T03:05:37.113Z,17.65
2022-08-14T03:06:58.021Z,17.76
2022-08-14T03:07:37.782Z,17.86
2022-08-14T03:08:36.782Z,18.01
2022-08-14T03:10:24.319Z,18.10
2022-08-14T03:10:41.845Z,18.34
2022-08-14T03:11:37.738Z,18.46
2022-08-14T03:12:36.827Z,18.53
2022-08-14T03:13:36.760Z,18.59
2022-08-14T03:14:36.693Z,18.66
2022-08-14T03:15:36.776Z,18.69
2022-08-14T03:16:38.549Z,18.75
2022-08-14T03:17:41.347Z,18.86
2022-08-14T03:18:37.717Z,18.94
2022-08-14T03:19:36.694Z,18.94
2022-08-14T03:20:36.715Z,18.96
2022-08-14T03:21:36.736Z,18.91
2022-08-14T03:22:36.684Z,19.02
2022-08-14T03:23:38.775Z,19.05
2022-08-14T03:24:36.635Z,19.01
2022-08-14T03:25:37.316Z,19.12
2022-08-14T03:26:36.670Z,19.17
2022-08-14T03:27:48.549Z,19.12
2022-08-14T03:28:39.357Z,19.10
2022-08-14T03:29:36.621Z,18.60
2022-08-14T03:30:39.581Z,18.19
2022-08-14T03:31:36.631Z,17.81
2022-08-14T03:32:36.606Z,17.68
2022-08-14T03:33:37.694Z,17.58
2022-08-14T03:34:47.918Z,17.47
2022-08-14T03:35:40.308Z,17.66
2022-08-14T03:37:39.446Z,17.79
2022-08-14T03:39:10.637Z,17.94
2022-08-14T03:39:14.562Z,18.04
2022-08-14T03:39:37.665Z,18.23
2022-08-14T03:40:36.574Z,18.29
2022-08-14T03:41:36.631Z,18.49
2022-08-14T03:42:36.854Z,18.62
2022-08-14T03:43:36.537Z,18.60
2022-08-14T03:45:26.006Z,18.65
2022-08-14T03:45:37.539Z,18.82
2022-08-14T03:46:52.833Z,18.74
2022-08-14T03:47:46.392Z,18.74
2022-08-14T03:48:40.443Z,18.59
2022-08-14T03:49:42.349Z,18.29
2022-08-14T03:50:37.501Z,17.70
2022-08-14T03:51:36.503Z,17.30
2022-08-14T03:52:39.290Z,17.32
2022-08-14T03:53:37.494Z,17.12
2022-08-14T03:54:36.461Z,17.39
2022-08-14T03:55:36.476Z,17.43
2022-08-14T03:56:36.496Z,17.06
2022-08-14T03:57:37.176Z,17.20
2022-08-14T03:58:36.978Z,17.39
2022-08-14T03:59:36.446Z,17.55
2022-08-14T04:00:43.703Z,17.73
2022-08-14T04:01:39.157Z,17.74
2022-08-14T04:02:37.749Z,17.62
2022-08-14T04:03:38.442Z,17.74
2022-08-14T04:04:36.412Z,17.58
2022-08-14T04:05:38.102Z,17.49
2022-08-14T04:06:45.210Z,17.39
2022-08-14T04:07:37.420Z,17.40
2022-08-14T04:08:36.423Z,17.55
2022-08-14T04:09:36.413Z,17.80
2022-08-14T04:10:36.406Z,17.80
2022-08-14T04:11:36.374Z,17.84
2022-08-14T04:12:36.415Z,17.99
2022-08-14T04:13:36.340Z,18.02
2022-08-14T04:14:37.319Z,18.20
2022-08-14T04:15:56.621Z,18.29
2022-08-14T04:16:37.347Z,18.44
2022-08-14T04:17:36.336Z,18.44
2022-08-14T04:18:36.340Z,18.56
2022-08-14T04:19:36.657Z,18.60
2022-08-14T04:20:36.356Z,18.51
2022-08-14T04:21:39.994Z,18.65
2022-08-14T04:22:37.313Z,18.59
2022-08-14T04:23:36.316Z,18.17
2022-08-14T04:24:38.274Z,17.99
2022-08-14T04:25:36.283Z,17.71
2022-08-14T04:26:42.863Z,17.42
2022-08-14T04:28:01.517Z,17.39
2022-08-14T04:29:07.248Z,17.14
2022-08-14T04:29:37.273Z,16.95
2022-08-14T04:30:36.235Z,16.99
2022-08-14T04:32:58.294Z,17.09
2022-08-14T04:33:01.331Z,17.35
2022-08-14T04:33:37.413Z,17.74
2022-08-14T04:34:36.397Z,18.29
2022-08-14T04:35:55.312Z,18.78
2022-08-14T04:36:37.242Z,19.31
2022-08-14T04:37:36.272Z,19.75
2022-08-14T04:38:38.379Z,20.08
2022-08-14T04:39:36.269Z,20.08
2022-08-14T04:40:40.475Z,20.19
2022-08-14T04:41:36.176Z,20.40
2022-08-14T04:42:37.203Z,20.66
2022-08-14T04:43:38.467Z,20.85
2022-08-14T04:44:37.214Z,20.91
2022-08-14T04:45:36.179Z,20.98
2022-08-14T04:46:56.163Z,20.20
2022-08-14T04:47:37.156Z,20.33
2022-08-14T04:48:43.538Z,20.64
2022-08-14T04:49:38.455Z,20.60
2022-08-14T04:50:44.333Z,20.85
2022-08-14T04:51:46.230Z,21.09
2022-08-14T04:52:37.399Z,21.24
2022-08-14T04:53:41.046Z,21.74
2022-08-14T04:54:37.123Z,21.94
2022-08-14T04:55:36.082Z,22.30
2022-08-14T04:56:36.104Z,22.66
2022-08-14T04:57:36.063Z,22.84
2022-08-14T04:58:36.107Z,23.03
2022-08-14T04:59:36.048Z,23.16
2022-08-14T05:00:36.066Z,23.35
2022-08-14T05:01:40.354Z,23.45
2022-08-14T05:02:36.208Z,23.35
2022-08-14T05:03:37.637Z,23.42
2022-08-14T05:04:39.860Z,23.56
2022-08-14T05:05:37.029Z,23.57
2022-08-14T05:06:39.075Z,23.04
2022-08-14T05:07:53.980Z,22.35
2022-08-14T05:08:56.706Z,22.45
2022-08-14T05:09:36.999Z,22.54
2022-08-14T05:10:39.084Z,22.84
2022-08-14T05:11:37.023Z,23.09
2022-08-14T05:13:13.145Z,23.41
2022-08-14T05:13:53.264Z,23.79
2022-08-14T05:14:53.110Z,23.99
2022-08-14T05:15:36.971Z,24.12
2022-08-14T05:16:35.995Z,24.18
2022-08-14T05:17:44.213Z,24.30
2022-08-14T05:19:24.861Z,24.31
2022-08-14T05:19:44.305Z,24.21
2022-08-14T05:21:56.286Z,23.60
2022-08-14T05:21:56.780Z,23.97
2022-08-14T05:22:36.957Z,22.89
2022-08-14T05:23:37.350Z,22.42
2022-08-14T05:24:35.947Z,21.82
2022-08-14T05:25:35.904Z,21.79
2022-08-14T05:26:35.909Z,21.79
2022-08-14T05:27:35.920Z,22.09
2022-08-14T05:28:36.010Z,22.41
2022-08-14T05:29:35.908Z,21.77
2022-08-14T05:30:35.910Z,21.55
2022-08-14T05:31:39.711Z,21.37
2022-08-14T05:32:35.864Z,21.11
2022-08-14T05:33:35.897Z,20.96
2022-08-14T05:34:35.846Z,21.09
2022-08-14T05:35:35.902Z,21.42
2022-08-14T05:36:36.168Z,21.43
2022-08-14T05:37:35.851Z,21.81
2022-08-14T05:38:35.808Z,22.24
2022-08-14T05:39:35.900Z,22.67
2022-08-14T05:40:35.828Z,23.03
2022-08-14T05:41:52.675Z,23.34
2022-08-14T05:42:36.783Z,23.41
2022-08-14T05:43:41.328Z,23.60
2022-08-14T05:44:36.832Z,23.68
2022-08-14T05:45:35.867Z,23.32
2022-08-14T05:46:35.788Z,23.49
2022-08-14T05:47:39.582Z,23.29
2022-08-14T05:48:41.434Z,23.52
2022-08-14T05:49:38.257Z,23.50
2022-08-14T05:50:35.834Z,23.60
2022-08-14T05:51:35.740Z,23.32
2022-08-14T05:52:38.535Z,23.52
2022-08-14T05:53:35.772Z,23.78
2022-08-14T05:54:36.034Z,24.11
2022-08-14T05:55:36.826Z,24.29
2022-08-14T05:56:37.014Z,24.46
2022-08-14T05:57:35.704Z,24.67
2022-08-14T05:58:41.302Z,24.70
2022-08-14T05:59:39.623Z,24.89
2022-08-14T06:00:39.114Z,24.92
2022-08-14T06:01:36.700Z,24.99
2022-08-14T06:02:35.673Z,24.98
2022-08-14T06:03:35.640Z,24.83
2022-08-14T06:04:35.628Z,24.77
2022-08-14T06:05:38.850Z,24.71
2022-08-14T06:06:38.492Z,24.70
2022-08-14T06:07:36.699Z,24.64
2022-08-14T06:08:41.654Z,24.33
2022-08-14T06:09:40.472Z,24.24
2022-08-14T06:10:35.611Z,24.26
2022-08-14T06:11:35.624Z,24.15
2022-08-14T06:12:56.456Z,24.11
2022-08-14T06:13:44.533Z,24.09
2022-08-14T06:14:36.672Z,24.02
2022-08-14T06:15:35.562Z,24.09
2022-08-14T06:16:35.575Z,24.15
2022-08-14T06:17:46.312Z,24.27
2022-08-14T06:18:36.607Z,24.26
2022-08-14T06:19:35.549Z,24.04
2022-08-14T06:20:35.519Z,23.97
2022-08-14T06:21:35.545Z,24.04
2022-08-14T06:22:35.542Z,23.84
2022-08-14T06:23:35.512Z,23.92
2022-08-14T06:24:35.776Z,23.81
2022-08-14T06:25:35.564Z,23.97
2022-08-14T06:26:35.539Z,24.00
2022-08-14T06:27:35.481Z,23.96
2022-08-14T06:28:35.496Z,23.74
2022-08-14T06:29:35.487Z,23.62
2022-08-14T06:30:45.900Z,23.53
2022-08-14T06:31:36.457Z,23.60
2022-08-14T06:32:38.332Z,23.78
2022-08-14T06:35:02.340Z,23.99
2022-08-14T06:35:09.432Z,24.18
2022-08-14T06:35:36.506Z,24.06
2022-08-14T06:36:35.446Z,24.12
2022-08-14T06:37:35.445Z,24.23
2022-08-14T06:38:35.409Z,24.33
2022-08-14T06:39:36.581Z,23.94
2022-08-14T06:40:35.443Z,24.14
2022-08-14T06:41:52.654Z,24.08
2022-08-14T06:42:36.436Z,23.94
2022-08-14T06:43:35.466Z,23.94
2022-08-14T06:44:35.355Z,23.99
2022-08-14T06:45:36.051Z,24.09
2022-08-14T06:46:37.028Z,24.27
2022-08-14T06:47:36.345Z,24.49
2022-08-14T06:48:35.395Z,24.56
2022-08-14T06:49:40.007Z,24.64
2022-08-14T06:50:36.326Z,24.55
2022-08-14T06:51:38.932Z,24.74
2022-08-14T06:52:36.350Z,24.92
2022-08-14T06:53:35.341Z,24.84
2022-08-14T06:54:35.328Z,24.75
2022-08-14T06:55:37.088Z,25.02
2022-08-14T06:56:36.323Z,25.14
2022-08-14T06:57:35.341Z,24.74
2022-08-14T06:58:35.297Z,23.82
2022-08-14T06:59:35.279Z,23.78
2022-08-14T07:00:36.266Z,24.05
2022-08-14T07:01:35.321Z,24.42
2022-08-14T07:02:35.938Z,24.66
2022-08-14T07:03:35.248Z,24.89
2022-08-14T07:04:35.260Z,25.07
2022-08-14T07:05:35.291Z,25.05
2022-08-14T07:06:45.690Z,25.12
2022-08-14T07:07:36.319Z,25.29
2022-08-14T07:08:35.265Z,25.42
2022-08-14T07:09:40.650Z,24.99
2022-08-14T07:10:36.216Z,24.66
2022-08-14T07:11:35.221Z,24.71
2022-08-14T07:13:01.083Z,24.66
2022-08-14T07:13:36.294Z,24.33
2022-08-14T07:14:35.179Z,24.46
2022-08-14T07:15:40.013Z,24.68
2022-08-14T07:16:36.180Z,24.86
2022-08-14T07:17:36.435Z,25.08
2022-08-14T07:18:35.173Z,24.45
2022-08-14T07:19:35.159Z,24.11
2022-08-14T07:20:35.185Z,23.99
2022-08-14T07:21:35.169Z,24.23
2022-08-14T07:22:56.223Z,24.30
2022-08-14T07:23:40.258Z,23.92
2022-08-14T07:24:36.133Z,23.84
2022-08-14T07:25:35.124Z,24.09
2022-08-14T07:26:35.130Z,24.51
2022-08-14T07:27:36.146Z,24.61
2022-08-14T07:28:35.968Z,25.02
2022-08-14T07:29:36.118Z,25.23
2022-08-14T07:30:35.346Z,25.02
2022-08-14T07:31:36.194Z,25.07
2022-08-14T07:32:35.179Z,24.97
2022-08-14T07:33:35.113Z,25.24
2022-08-14T07:34:40.785Z,25.57
2022-08-14T07:35:37.515Z,25.90
2022-08-14T07:36:36.115Z,26.17
2022-08-14T07:37:35.067Z,26.24
2022-08-14T07:38:37.976Z,26.36
2022-08-14T07:39:36.089Z,26.47
2022-08-14T07:40:35.036Z,26.61
2022-08-14T07:41:35.949Z,26.59
2022-08-14T07:42:35.102Z,26.72
2022-08-14T07:43:35.007Z,26.76
2022-08-14T07:44:45.742Z,26.91
2022-08-14T07:45:35.986Z,26.54
2022-08-14T07:46:35.019Z,26.78
2022-08-14T07:47:34.971Z,26.42
2022-08-14T07:48:35.020Z,25.76
2022-08-14T07:49:35.056Z,25.08
2022-08-14T07:50:34.978Z,24.92
2022-08-14T07:51:37.006Z,24.86
2022-08-14T07:52:34.971Z,25.11
2022-08-14T07:53:39.163Z,25.39
2022-08-14T07:54:35.934Z,25.76
2022-08-14T07:55:34.972Z,25.82
2022-08-14T07:56:47.134Z,25.20
2022-08-14T07:57:35.967Z,25.48
2022-08-14T07:58:39.012Z,25.74
2022-08-14T07:59:42.512Z,25.83
2022-08-14T08:00:35.938Z,25.85
2022-08-14T08:01:35.014Z,26.06
2022-08-14T08:02:34.967Z,26.11
2022-08-14T08:03:34.960Z,26.16
2022-08-14T08:04:34.910Z,26.16
2022-08-14T08:05:34.861Z,26.21
2022-08-14T08:06:34.885Z,26.42
2022-08-14T08:07:34.866Z,26.69
2022-08-14T08:08:34.928Z,26.84
2022-08-14T08:09:34.917Z,27.02
2022-08-14T08:11:01.474Z,26.97
2022-08-14T08:11:37.092Z,26.79
2022-08-14T08:12:35.027Z,26.73
2022-08-14T08:13:34.821Z,26.60
2022-08-14T08:14:56.916Z,26.54
2022-08-14T08:15:35.850Z,26.24
2022-08-14T08:16:34.860Z,26.47
2022-08-14T08:17:38.351Z,26.87
2022-08-14T08:18:36.159Z,27.15
2022-08-14T08:19:36.991Z,27.40
2022-08-14T08:20:34.777Z,27.33
2022-08-14T08:21:35.590Z,26.96
2022-08-14T08:22:34.826Z,27.25
2022-08-14T08:23:40.901Z,27.43
2022-08-14T08:24:35.760Z,27.53
2022-08-14T08:25:34.748Z,27.74
2022-08-14T08:26:35.793Z,27.77
2022-08-14T08:27:34.763Z,27.99
2022-08-14T08:28:34.764Z,27.84
2022-08-14T08:29:34.733Z,27.83
2022-08-14T08:30:34.743Z,28.01
2022-08-14T08:31:35.265Z,28.17
2022-08-14T08:32:34.709Z,28.40
2022-08-14T08:33:37.350Z,28.38
2022-08-14T08:34:34.765Z,28.57
2022-08-14T08:35:46.352Z,28.01
2022-08-14T08:36:35.753Z,27.33
2022-08-14T08:37:40.270Z,27.38
2022-08-14T08:39:14.739Z,27.72
2022-08-14T08:40:01.400Z,27.83
2022-08-14T08:40:35.786Z,27.52
2022-08-14T08:41:35.647Z,27.53
2022-08-14T08:42:38.668Z,26.81
2022-08-14T08:43:35.651Z,26.57
2022-08-14T08:44:34.710Z,26.83
2022-08-14T08:45:34.664Z,26.83
2022-08-14T08:46:35.801Z,26.94
2022-08-14T08:47:34.737Z,27.03
2022-08-14T08:48:36.469Z,27.28
2022-08-14T08:49:36.409Z,27.49
2022-08-14T08:51:21.367Z,28.05
2022-08-14T08:52:24.846Z,28.42
2022-08-14T08:53:23.533Z,28.70
2022-08-14T08:54:26.546Z,28.82
2022-08-14T08:55:23.523Z,28.80
2022-08-14T08:56:30.662Z,28.23
2022-08-14T08:57:24.259Z,28.28
2022-08-14T08:58:25.066Z,28.21
2022-08-14T08:59:22.556Z,27.58
2022-08-14T09:00:25.196Z,27.58
2022-08-14T09:01:23.536Z,27.78
2022-08-14T09:02:22.514Z,28.20
2022-08-14T09:03:22.499Z,28.17
2022-08-14T09:04:22.510Z,27.88
2022-08-14T09:05:22.925Z,27.68
2022-08-14T09:06:56.978Z,27.86
2022-08-14T09:07:23.507Z,28.08
2022-08-14T09:08:30.834Z,28.17
2022-08-14T09:09:23.458Z,28.09
2022-08-14T09:10:22.453Z,27.93
2022-08-14T09:11:22.465Z,27.59
2022-08-14T09:12:22.461Z,27.59
2022-08-14T09:13:22.423Z,27.55
2022-08-14T09:14:22.405Z,27.49
2022-08-14T09:15:22.408Z,27.63
2022-08-14T09:16:23.531Z,27.45
2022-08-14T09:17:25.926Z,27.16
2022-08-14T09:18:22.390Z,27.01
2022-08-14T09:19:22.392Z,27.34
2022-08-14T09:20:29.672Z,27.68
2022-08-14T09:21:24.175Z,27.74
2022-08-14T09:22:35.765Z,27.98
2022-08-14T09:23:34.681Z,28.08
2022-08-14T09:24:29.653Z,28.09
2022-08-14T09:25:58.579Z,28.40
2022-08-14T09:26:23.439Z,28.40
2022-08-14T09:27:23.483Z,28.14
2022-08-14T09:28:22.337Z,28.13
2022-08-14T09:29:23.540Z,28.03
2022-08-14T09:30:32.840Z,28.23
2022-08-14T09:31:23.321Z,28.51
2022-08-14T09:32:59.057Z,28.03
2022-08-14T09:33:23.351Z,27.45
2022-08-14T09:34:27.176Z,27.38
2022-08-14T09:35:23.302Z,27.48
2022-08-14T09:36:22.326Z,27.77
2022-08-14T09:37:22.268Z,28.13
2022-08-14T09:38:26.251Z,28.42
2022-08-14T09:39:23.799Z,28.36
2022-08-14T09:40:22.307Z,28.13
2022-08-14T09:41:22.217Z,28.20
2022-08-14T09:42:33.413Z,28.32
2022-08-14T09:43:24.227Z,28.85
2022-08-14T09:44:22.269Z,29.08
2022-08-14T09:45:22.360Z,29.48
2022-08-14T09:46:25.803Z,29.54
2022-08-14T09:47:22.236Z,29.33
2022-08-14T09:48:27.638Z,29.54
2022-08-14T09:49:23.185Z,29.44
2022-08-14T09:50:22.162Z,29.42
2022-08-14T09:51:22.258Z,29.27
2022-08-14T09:52:33.038Z,28.98
2022-08-14T09:53:23.142Z,28.40
2022-08-14T09:54:23.425Z,27.90
2022-08-14T09:55:22.177Z,27.59
2022-08-14T09:56:24.336Z,27.59
2022-08-14T09:57:23.182Z,27.72
2022-08-14T09:58:23.153Z,27.72
2022-08-14T09:59:22.190Z,27.95
2022-08-14T10:00:28.782Z,28.11
2022-08-14T10:01:24.870Z,28.40
2022-08-14T10:02:22.133Z,28.88
2022-08-14T10:03:22.119Z,29.15
2022-08-14T10:04:33.024Z,29.57
2022-08-14T10:05:23.073Z,29.76
2022-08-14T10:06:22.096Z,29.79
2022-08-14T10:07:22.196Z,29.78
2022-08-14T10:08:26.334Z,30.10
2022-08-14T10:09:22.033Z,30.13
2022-08-14T10:10:23.793Z,29.70
2022-08-14T10:11:23.151Z,29.58
2022-08-14T10:12:28.662Z,29.51
2022-08-14T10:13:23.677Z,29.69
2022-08-14T10:14:29.517Z,29.81
2022-08-14T10:15:23.880Z,29.55
2022-08-14T10:16:27.439Z,29.41
2022-08-14T10:17:23.074Z,29.08
2022-08-14T10:18:21.990Z,28.83
2022-08-14T10:19:21.998Z,29.10
2022-08-14T10:20:39.531Z,29.08
2022-08-14T10:21:22.985Z,29.10
2022-08-14T10:23:15.008Z,29.11
2022-08-14T10:23:23.364Z,29.27
2022-08-14T10:24:21.950Z,29.36
2022-08-14T10:25:22.534Z,29.51
2022-08-14T10:26:22.979Z,29.44
2022-08-14T10:27:22.909Z,29.37
2022-08-14T10:28:39.370Z,29.45
2022-08-14T10:29:23.616Z,29.48
2022-08-14T10:30:22.466Z,29.03
2022-08-14T10:31:25.355Z,28.87
2022-08-14T10:32:28.377Z,28.85
2022-08-14T10:33:23.002Z,28.97
2022-08-14T10:34:29.140Z,29.07
2022-08-14T10:35:31.091Z,29.20
2022-08-14T10:36:34.619Z,29.35
2022-08-14T10:37:23.172Z,29.05
2022-08-14T10:38:21.890Z,28.83
2022-08-14T10:39:21.875Z,28.94
2022-08-14T10:40:37.554Z,28.82
2022-08-14T10:41:22.839Z,28.87
2022-08-14T10:42:22.878Z,28.83
2022-08-14T10:43:23.271Z,29.26
2022-08-14T10:44:21.998Z,29.67
2022-08-14T10:45:22.027Z,29.82
2022-08-14T10:47:40.565Z,30.53
2022-08-14T10:47:41.429Z,30.30
2022-08-14T10:48:38.244Z,30.79
2022-08-14T10:49:23.375Z,31.05
2022-08-14T10:50:21.774Z,31.38
2022-08-14T10:51:21.794Z,31.49
2022-08-14T10:52:22.007Z,31.67
2022-08-14T10:53:21.806Z,31.82
2022-08-14T10:54:39.810Z,31.65
2022-08-14T10:55:22.766Z,31.52
2022-08-14T10:56:34.025Z,31.50
2022-08-14T10:57:22.830Z,31.16
2022-08-14T10:58:21.819Z,30.16
2022-08-14T10:59:21.754Z,29.47
2022-08-14T11:00:29.454Z,29.52
2022-08-14T11:01:22.698Z,29.63
2022-08-14T11:02:35.934Z,29.97
2022-08-14T11:03:26.694Z,30.38
2022-08-14T11:04:25.068Z,30.79
2022-08-14T11:05:21.731Z,30.98
2022-08-14T11:06:21.705Z,31.01
2022-08-14T11:07:21.709Z,30.75
2022-08-14T11:08:21.669Z,31.01
2022-08-14T11:09:21.690Z,31.42
2022-08-14T11:10:21.683Z,31.34
2022-08-14T11:11:21.649Z,31.25
2022-08-14T11:12:34.513Z,31.22
2022-08-14T11:13:23.836Z,30.76
2022-08-14T11:14:22.629Z,30.19
2022-08-14T11:15:22.637Z,30.00
2022-08-14T11:16:21.588Z,29.84
2022-08-14T11:17:21.920Z,29.58
2022-08-14T11:18:35.703Z,29.79
2022-08-14T11:19:24.357Z,29.79
2022-08-14T11:20:21.557Z,29.70
2022-08-14T11:21:21.651Z,29.85
2022-08-14T11:22:52.967Z,29.84
2022-08-14T11:23:22.587Z,30.13
2022-08-14T11:24:55.383Z,30.51
2022-08-14T11:25:22.558Z,30.53
2022-08-14T11:26:21.559Z,30.34
2022-08-14T11:27:27.067Z,29.63
2022-08-14T11:28:47.683Z,29.74
2022-08-14T11:29:24.682Z,29.47
2022-08-14T11:30:50.849Z,29.33
2022-08-14T11:31:22.487Z,29.14
2022-08-14T11:32:21.498Z,29.17
2022-08-14T11:33:21.549Z,29.25
2022-08-14T11:34:32.199Z,29.45
2022-08-14T11:35:22.586Z,29.54
2022-08-14T11:36:21.530Z,29.57
2022-08-14T11:37:36.412Z,29.47
2022-08-14T11:38:22.464Z,29.15
2022-08-14T11:39:34.028Z,29.27
2022-08-14T11:40:28.669Z,29.36
2022-08-14T11:41:22.518Z,29.23
2022-08-14T11:42:57.143Z,29.51
2022-08-14T11:43:22.722Z,29.78
2022-08-14T11:44:45.540Z,30.06
2022-08-14T11:45:23.390Z,30.37
2022-08-14T11:46:30.667Z,29.86
2022-08-14T11:47:22.590Z,30.00
2022-08-14T11:49:02.890Z,30.19
2022-08-14T11:49:22.366Z,30.67
2022-08-14T11:50:33.473Z,30.85
2022-08-14T11:51:23.876Z,30.73
2022-08-14T11:52:21.706Z,30.86
2022-08-14T11:53:21.367Z,30.64
2022-08-14T11:54:34.674Z,30.88
2022-08-14T11:55:25.509Z,31.28
2022-08-14T11:56:25.678Z,31.23
2022-08-14T11:57:22.779Z,30.88
2022-08-14T11:58:24.097Z,30.85
2022-08-14T11:59:26.569Z,30.67
2022-08-14T12:00:22.358Z,30.56
2022-08-14T12:01:22.384Z,30.01
2022-08-14T12:02:39.163Z,29.27
2022-08-14T12:03:37.309Z,29.32
2022-08-14T12:04:33.476Z,29.27
2022-08-14T12:05:22.362Z,29.45
2022-08-14T12:06:29.438Z,29.62
2022-08-14T12:07:22.264Z,30.08
2022-08-14T12:08:24.459Z,30.00
2022-08-14T12:09:22.055Z,30.23
2022-08-14T12:10:26.091Z,30.54
2022-08-14T12:11:22.254Z,30.36
2022-08-14T12:12:35.523Z,30.38
2022-08-14T12:13:22.513Z,29.84
2022-08-14T12:14:34.943Z,29.69
2022-08-14T12:15:22.210Z,29.66
2022-08-14T12:16:22.777Z,29.48
2022-08-14T12:17:23.414Z,29.54
2022-08-14T12:18:21.207Z,29.58
2022-08-14T12:19:21.191Z,29.49
2022-08-14T12:20:30.000Z,29.37
2022-08-14T12:21:22.198Z,29.32
2022-08-14T12:22:29.897Z,29.33
2022-08-14T12:23:22.177Z,29.30
2022-08-14T12:24:35.736Z,29.45
2022-08-14T12:25:24.880Z,29.51
2022-08-14T12:26:39.971Z,29.29
2022-08-14T12:27:24.864Z,29.17
2022-08-14T12:28:27.244Z,29.32
2022-08-14T12:29:22.152Z,29.44
2022-08-14T12:30:21.405Z,29.45
2022-08-14T12:31:21.389Z,29.55
2022-08-14T12:32:21.141Z,29.63
2022-08-14T12:33:21.100Z,29.52
2022-08-14T12:34:24.049Z,29.64
2022-08-14T12:35:21.083Z,29.58
2022-08-14T12:36:21.110Z,29.69
2022-08-14T12:37:21.139Z,29.79
2022-08-14T12:38:21.373Z,29.67
2022-08-14T12:39:21.257Z,29.58
2022-08-14T12:40:21.176Z,29.36
2022-08-14T12:41:21.824Z,29.25
2022-08-14T12:42:34.155Z,29.11
2022-08-14T12:43:22.021Z,29.20
2022-08-14T12:44:21.131Z,29.37
2022-08-14T12:45:21.015Z,29.48
2022-08-14T12:46:22.769Z,29.57
2022-08-14T12:47:22.002Z,29.74
2022-08-14T12:48:31.552Z,29.67
2022-08-14T12:49:22.500Z,29.54
2022-08-14T12:50:20.979Z,29.45
2022-08-14T12:51:21.712Z,29.64
2022-08-14T12:52:20.973Z,29.70
2022-08-14T12:53:22.101Z,30.01